俄罗斯的摩擦系数

此事源于一位机长说jeppesen手册上有个换算表,写着俄罗斯的雪情通告中的摩擦系数叫“normative friction coefficient”和ICAO的”measured friction coefficient”不同。

uuee_jesppesen

机组疑惑,在飞UUEE时,给机组的到底是哪个coefficient?这个对照表有什么用处?

对此我找了AIP中的依据

NORM FC

AIP的《AD 1.2 RESCUE AND FIRE FIGHTING SERVICES AND SNOW PLAN》中说到使用ATT-2的设备测的摩擦系数和用SFT设备测的是一样的。其操作方法是先用ATT-2设备测得ICAO的”measured friction coefficient”值,再根据换算表,变为“normative friction coefficient”。

ATIS FC

UUEE的机场AIP中说到ATIS中俄语播报的是Normative,英语播报的是measured,所以英语的ATIS中就是ICAO的标准。

METAR报文中的摩擦系数和SNOWTAM永远是相同的。如:
(SNOWTAM 0210
A)UNKL B)11200230
C)11 F)8/8/8/ G)XX H)55/55/55 SFT N)TWY-D 8.
S)11210400
T)RWY AND APRON CONTAMINATION 10 PER CENT.)

METAR UNKL 200330Z 24004G08MPS 9000 -SHSN SCT019CB BKN083 M11/M16 Q1018 NOSIG RMK QFE738 29////55

(SNOWTAM 0207
A)UUEE B)11191545
C)07L F)NIL/NIL/NIL H)62/62/62 SFT
C)07R F)NIL/NIL/NIL H)62/62/62 SFT
T)MAIN TWY, TWY, STANDS AND APRONS DRY.)

METAR UUEE 191530Z 06002MPS 5000 BR SKC M06/M09 Q1036 75000062 25000062 NOSIG

所以说,用SFT设备的到的摩擦系数,肯定是ICAO的标准。只有俄语播报的通波里是Normative。

传说只有哈萨克斯坦的机场仍然使用“normative friction coefficient”。只是传说,没有证实。

发表评论